Willow Island, Nebraska
Current Conditions -  °F | °C
As of 3:55 AM on Wednesday 26 Nov 2014 (Local Time) from KLXN Reporting Station
Clear Clear  
Wind Chill: 25°   Ceiling: Unl
Heat Index: 37°   Visibility: 10mi
Dew Point: 23°   Wind: 23mph
Humidity: 58%   Direction: 320°NW
Pressure: 30.01"   Gusts: NA
Location:  40.88°N, 100.1°W
Report Text: KLXN 260955Z AUTO 32020KT 10SM CLR 03/M05 A3001 RMK AO2 T00251051
Loading
Personal Weather Stations






























Interactive Weather Map New forecast layout! Learn more

10-Day Weather Forecast

Advertisements
Track Severe Weather on mobile